Saint Inigoes, Maryland
Current Conditions -  °F | °C
As of 7:53 AM on Sunday 21 Dec 2014 (Local Time) from KNUI Reporting Station
Overcast Overcast  
Wind Chill: 35°   Ceiling: 7000
Heat Index: 35°   Visibility: 10mi
Dew Point: 25°   Wind: 0mph
Humidity: 67%   Direction: NA
Pressure: 30.34"   Gusts: NA
Location:  38.17°N, 76.41°W
Report Text: KNUI 211253Z AUTO 00000KT 10SM OVC070 02/M04 A3034 RMK AO2 SLP272 T00171039
Loading
Personal Weather Stations






























Interactive Weather Map New forecast layout! Learn more

10-Day Weather Forecast

Advertisements
Track Severe Weather on mobile